La Guardia Airport New York US
ICAO: KLGA
IATA: LGA
Category: Large
Scheduled Services: Yes

Elevation: 21 ft
TransAlt. 18000 ft.

Airport Communications:
NEW YORK APP:118
NEW YORK APP:132.7
ATIS:125.95
CLNC DEL:121.875
NEW YORK DEP:120.4
GND:121.7
TWR:118.7
UNICOM:122.95

KLGA Zoom In..

If you have problems with the map follow the link
https://www.worldairports.se/pages/airport.php?
ICAO=KLGA

Runways:

(A) RW 04 length 7001 ft width 150 ft
ILS 110.50 / hdg 44

(B) RW 13 length 7003 ft width 150 ft
ILS 108.50 / hdg 134

(C) RW 22 length 7001 ft width 150 ft
ILS 110.50 / hdg 224

(D) RW 31 length 7003 ft width 150 ft
LOC 108.50 / hdg 314

Location; KLGA
Day. 16 / Time. 11.51 Zulu
* Altimeter: 29.50
* Temperature: 4/° c. 39.2°f.
* Wind from: 330° Speed 23 kn with Gusts up to 28 kn.
Dewpoint: 01° c.
Visibility: 2 Statute Miles.
Clouds: Scattered 700 ft.
Clouds: Broken 900 ft.
Clouds: Overcast 1400 ft.
Conditions: Mist.

KLGA 161151Z 33023G28KT 2SM R04/5500VP6000FT RASN BR SCT007 BKN009 OVC014 03/02 A2950 RMK AO2 PK WND 31030/1139 SNB47 SLP989 4/001 P0013 60025 70123 T00330017 10067 20033 53017 $


Wind From 330°
Speed 23 kn.

 
 
jpsmedia.com for Web Design worldairports.se 2018   terms of use